Time;durP1;ratioP1;P1;durP2;ratioP2;P2;SDS_P1;SDS_P2;PMS_P1;PMS_P2;Temp;Humidity;BMP_temperature;BMP_pressure;BME280_temperature;BME280_humidity;BME280_pressure;Samples;Min_cycle;Max_cycle;Signal;HPM_P1;HPM_P2
2024/01/25 00:00:54;;;;;;;27.80;6.47;;;;;;;8.11;100.00;102695.81;5012161;28;20400;-67
2024/01/25 00:03:19;;;;;;;34.58;7.68;;;;;;;8.03;100.00;102704.84;5010442;28;20575;-67
2024/01/25 00:05:44;;;;;;;26.40;6.07;;;;;;;8.02;100.00;102713.72;4996883;28;20026;-67
2024/01/25 00:08:10;;;;;;;43.65;8.38;;;;;;;7.96;100.00;102705.00;4997914;28;20117;-67
2024/01/25 00:10:40;;;;;;;41.60;8.90;;;;;;;7.97;100.00;102697.91;4998728;28;20025;-67
2024/01/25 00:13:05;;;;;;;33.08;6.65;;;;;;;7.94;100.00;102696.25;5008601;28;20018;-67
2024/01/25 00:15:31;;;;;;;51.03;9.52;;;;;;;7.80;100.00;102678.91;5009678;28;20072;-67
2024/01/25 00:17:56;;;;;;;43.78;8.82;;;;;;;7.87;100.00;102697.25;5009606;28;20037;-67
2024/01/25 00:20:22;;;;;;;46.55;10.82;;;;;;;7.79;100.00;102696.53;5010614;28;20025;-67
2024/01/25 00:22:47;;;;;;;29.98;6.90;;;;;;;7.74;100.00;102691.38;5010622;28;20022;-67
2024/01/25 00:25:13;;;;;;;28.48;5.80;;;;;;;7.72;100.00;102687.00;5010752;28;20539;-67
2024/01/25 00:27:38;;;;;;;29.33;7.22;;;;;;;7.71;100.00;102695.88;5010163;28;20029;-67
2024/01/25 00:30:04;;;;;;;47.80;7.13;;;;;;;7.69;100.00;102705.59;5009104;28;20053;-67
2024/01/25 00:32:30;;;;;;;37.65;6.22;;;;;;;7.68;100.00;102715.34;5006144;28;20115;-67
2024/01/25 00:34:55;;;;;;;38.85;7.65;;;;;;;7.63;100.00;102698.66;5010338;28;20022;-67
2024/01/25 00:37:21;;;;;;;49.65;6.88;;;;;;;7.65;100.00;102702.16;5010443;28;20091;-67
2024/01/25 00:39:48;;;;;;;34.10;6.72;;;;;;;7.57;100.00;102703.22;5010060;28;20069;-67
2024/01/25 00:42:20;;;;;;;33.65;7.57;;;;;;;7.47;100.00;102687.53;5010132;28;20432;-67
2024/01/25 00:44:46;;;;;;;40.63;6.18;;;;;;;7.55;100.00;102695.28;5010385;28;20017;-67
2024/01/25 00:47:12;;;;;;;33.00;6.60;;;;;;;7.54;100.00;102695.34;5009339;28;20033;-67
2024/01/25 00:49:37;;;;;;;30.20;7.13;;;;;;;7.50;100.00;102702.47;5010766;28;20340;-67
2024/01/25 00:52:04;;;;;;;33.65;7.53;;;;;;;7.48;100.00;102693.69;5009279;28;20501;-67
2024/01/25 00:54:30;;;;;;;42.90;6.28;;;;;;;7.49;100.00;102700.72;5009048;28;20477;-67
2024/01/25 00:56:55;;;;;;;36.10;7.53;;;;;;;7.39;100.00;102704.47;5008755;28;20037;-67
2024/01/25 00:59:21;;;;;;;47.03;7.47;;;;;;;7.38;100.00;102700.06;5008329;28;20041;-67
2024/01/25 01:01:52;;;;;;;34.30;8.10;;;;;;;7.38;100.00;102713.28;5010473;28;20101;-67
2024/01/25 01:04:18;;;;;;;39.58;7.55;;;;;;;7.28;100.00;102694.94;5010251;28;20069;-67
2024/01/25 01:06:44;;;;;;;25.95;6.50;;;;;;;7.34;100.00;102701.91;5009257;28;20029;-67
2024/01/25 01:09:09;;;;;;;35.75;7.22;;;;;;;7.31;100.00;102704.59;5009088;28;20058;-66
2024/01/25 01:11:36;;;;;;;34.33;7.88;;;;;;;7.28;100.00;102704.66;5008268;28;20172;-67
2024/01/25 01:14:01;;;;;;;23.88;5.93;;;;;;;7.26;100.00;102712.66;5009930;28;20025;-67
2024/01/25 01:16:27;;;;;;;36.20;9.10;;;;;;;7.24;100.00;102713.59;5008570;28;20041;-67
2024/01/25 01:18:53;;;;;;;34.78;6.75;;;;;;;7.12;100.00;102693.50;5009900;28;20029;-67
2024/01/25 01:21:18;;;;;;;34.10;7.57;;;;;;;7.18;100.00;102711.91;5009816;28;20073;-67
2024/01/25 01:23:46;;;;;;;40.20;8.40;;;;;;;7.15;100.00;102714.63;5008374;28;20026;-67
2024/01/25 01:26:11;;;;;;;43.83;7.35;;;;;;;7.18;100.00;102725.16;5009265;28;20022;-67
2024/01/25 01:28:37;;;;;;;25.05;7.32;;;;;;;7.12;100.00;102727.00;5008474;28;20037;-67
2024/01/25 01:31:02;;;;;;;40.28;8.48;;;;;;;7.10;100.00;102728.84;5009627;28;20033;-67
2024/01/25 01:33:27;;;;;;;31.38;6.35;;;;;;;7.07;100.00;102726.25;5009469;28;20038;-67
2024/01/25 01:35:53;;;;;;;43.17;7.63;;;;;;;7.04;100.00;102719.25;5010086;28;20014;-67
2024/01/25 01:38:18;;;;;;;49.60;9.35;;;;;;;6.99;100.00;102721.94;5008688;28;20021;-67
2024/01/25 01:40:47;;;;;;;45.95;9.48;;;;;;;6.96;100.00;102734.38;5009477;28;20034;-67
2024/01/25 01:43:19;;;;;;;41.65;7.63;;;;;;;6.94;100.00;102741.44;5005686;28;20022;-67
2024/01/25 01:45:45;;;;;;;41.35;8.70;;;;;;;6.89;100.00;102730.09;5005246;28;20427;-67
2024/01/25 01:48:11;;;;;;;50.25;7.80;;;;;;;6.88;100.00;102734.47;5010474;28;20109;-67
2024/01/25 01:50:37;;;;;;;34.67;6.50;;;;;;;6.87;100.00;102735.41;5008320;28;20018;-67
2024/01/25 01:53:04;;;;;;;37.45;7.97;;;;;;;6.83;100.00;102737.22;5008298;28;20480;-67
2024/01/25 01:55:30;;;;;;;46.03;8.38;;;;;;;6.82;100.00;102737.25;5007586;28;20025;-67
2024/01/25 01:57:56;;;;;;;32.65;7.22;;;;;;;6.73;100.00;102742.69;5007681;28;20030;-67
2024/01/25 02:00:22;;;;;;;36.58;7.68;;;;;;;6.75;100.00;102760.28;5008516;28;20032;-67
2024/01/25 02:02:47;;;;;;;44.55;9.18;;;;;;;6.70;100.00;102759.47;4995840;28;20077;-67
2024/01/25 02:05:13;;;;;;;41.08;8.18;;;;;;;6.71;100.00;102763.00;4992522;28;20028;-67
2024/01/25 02:07:40;;;;;;;32.75;7.15;;;;;;;6.64;100.00;102767.50;5007095;28;20026;-67
2024/01/25 02:10:06;;;;;;;35.95;7.30;;;;;;;6.63;100.00;102775.47;5008213;28;20432;-67
2024/01/25 02:12:34;;;;;;;43.22;8.07;;;;;;;6.58;100.00;102754.38;5011342;28;20034;-67
2024/01/25 02:15:00;;;;;;;41.30;8.20;;;;;;;6.58;100.00;102763.19;5010317;28;20025;-67
2024/01/25 02:17:25;;;;;;;38.58;9.00;;;;;;;6.56;100.00;102783.50;5012592;28;20032;-67
2024/01/25 02:19:50;;;;;;;29.05;7.38;;;;;;;6.45;100.00;102774.84;5011845;28;20026;-67
2024/01/25 02:22:19;;;;;;;44.33;8.55;;;;;;;6.49;100.00;102789.75;5013090;28;20114;-67
2024/01/25 02:24:45;;;;;;;46.95;7.55;;;;;;;6.40;100.00;102783.75;5011605;28;20030;-67
2024/01/25 02:27:10;;;;;;;34.10;6.55;;;;;;;6.32;100.00;102773.25;5011553;28;20088;-67
2024/01/25 02:29:36;;;;;;;42.22;6.95;;;;;;;6.35;100.00;102787.34;5012969;28;20036;-67
2024/01/25 02:32:02;;;;;;;33.15;7.07;;;;;;;6.25;100.00;102771.63;5011813;28;20077;-66
2024/01/25 02:34:27;;;;;;;31.13;7.40;;;;;;;6.37;100.00;102798.72;5011698;28;20086;-67
2024/01/25 02:36:53;;;;;;;35.38;8.05;;;;;;;6.33;100.00;102799.69;5011419;28;20022;-67
2024/01/25 02:39:18;;;;;;;35.65;7.75;;;;;;;6.33;100.00;102798.81;5012654;28;20544;-67
2024/01/25 02:41:44;;;;;;;33.20;8.13;;;;;;;6.12;100.00;102768.28;5012577;28;20026;-67
2024/01/25 02:44:11;;;;;;;40.03;7.72;;;;;;;6.24;100.00;102794.53;5006277;28;20105;-67
2024/01/25 02:46:36;;;;;;;38.10;8.63;;;;;;;6.22;100.00;102800.72;5012376;28;20481;-67
2024/01/25 02:49:02;;;;;;;28.30;7.25;;;;;;;6.17;100.00;102800.78;5012315;28;20026;-67
2024/01/25 02:51:27;;;;;;;35.50;7.22;;;;;;;6.06;100.00;102789.47;5012168;28;20014;-67
2024/01/25 02:53:52;;;;;;;25.98;6.88;;;;;;;6.12;100.00;102797.34;5008904;28;20486;-66
2024/01/25 02:56:18;;;;;;;27.52;7.07;;;;;;;6.03;100.00;102790.41;5010133;28;20029;-66
2024/01/25 02:58:43;;;;;;;31.20;7.70;;;;;;;6.05;100.00;102800.94;5011590;28;20034;-67
2024/01/25 03:01:09;;;;;;;36.47;7.53;;;;;;;6.04;100.00;102796.56;5011374;28;20030;-66
2024/01/25 03:03:34;;;;;;;39.85;7.10;;;;;;;6.01;100.00;102796.59;5009440;28;20049;-67
2024/01/25 03:06:00;;;;;;;38.33;7.43;;;;;;;5.99;100.00;102793.09;5007314;28;20193;-67
2024/01/25 03:08:25;;;;;;;26.15;6.72;;;;;;;5.92;100.00;102793.13;5010984;28;20029;-67
2024/01/25 03:10:50;;;;;;;24.77;6.50;;;;;;;5.88;100.00;102791.44;5002411;28;20477;-66
2024/01/25 03:13:16;;;;;;;37.33;7.10;;;;;;;5.83;100.00;102779.19;4999063;28;20405;-67
2024/01/25 03:15:43;;;;;;;34.70;7.13;;;;;;;5.78;100.00;102768.66;4994541;28;20126;-67
2024/01/25 03:18:09;;;;;;;36.53;7.57;;;;;;;5.84;100.00;102786.19;5007075;28;20561;-66
2024/01/25 03:20:34;;;;;;;20.25;6.15;;;;;;;5.83;100.00;102781.81;4991917;28;20113;-67
2024/01/25 03:23:00;;;;;;;37.13;8.80;;;;;;;5.77;100.00;102769.56;4992236;28;20394;-67
2024/01/25 03:25:27;;;;;;;29.52;6.60;;;;;;;5.77;100.00;102772.22;5006761;28;20026;-67
2024/01/25 03:27:53;;;;;;;32.15;8.32;;;;;;;5.75;100.00;102773.13;5002636;28;20022;-67
2024/01/25 03:30:20;;;;;;;32.22;6.45;;;;;;;5.73;100.00;102769.59;5008779;28;20024;-66
2024/01/25 03:32:46;;;;;;;31.52;6.53;;;;;;;5.74;100.00;102781.94;5010325;28;20104;-66
2024/01/25 03:35:14;;;;;;;31.08;6.18;;;;;;;5.72;100.00;102781.94;5010774;28;20014;-66
2024/01/25 03:37:39;;;;;;;39.97;7.10;;;;;;;5.62;100.00;102777.66;5011486;28;20018;-67
2024/01/25 03:40:05;;;;;;;26.98;6.35;;;;;;;5.58;100.00;102787.38;5010816;28;20036;-67
2024/01/25 03:42:31;;;;;;;22.45;5.80;;;;;;;5.63;100.00;102795.25;5009964;28;20026;-66
2024/01/25 03:44:56;;;;;;;36.92;5.90;;;;;;;5.61;100.00;102800.53;5003760;28;20402;-66
2024/01/25 03:47:22;;;;;;;27.38;5.90;;;;;;;5.55;100.00;102795.31;5005337;28;20109;-66
2024/01/25 03:49:47;;;;;;;32.25;5.45;;;;;;;5.59;100.00;102807.59;5002726;28;20030;-67
2024/01/25 03:52:12;;;;;;;27.17;6.22;;;;;;;5.50;100.00;102799.78;5009680;28;20038;-66
2024/01/25 03:54:38;;;;;;;32.20;6.38;;;;;;;5.52;100.00;102808.53;5008762;28;20057;-66
2024/01/25 03:57:03;;;;;;;31.95;6.78;;;;;;;5.46;100.00;102800.69;5010478;28;20472;-66
2024/01/25 03:59:29;;;;;;;25.83;5.20;;;;;;;5.45;100.00;102809.50;5002751;28;20045;-66
2024/01/25 04:01:54;;;;;;;29.10;7.03;;;;;;;5.42;100.00;102810.41;5010079;28;20026;-67
2024/01/25 04:04:19;;;;;;;30.17;7.43;;;;;;;5.36;100.00;102799.06;5010296;28;20042;-67
2024/01/25 04:06:48;;;;;;;30.02;7.32;;;;;;;5.36;100.00;102802.56;5000692;28;20022;-67
2024/01/25 04:09:15;;;;;;;29.27;6.07;;;;;;;5.31;100.00;102800.84;5009802;28;20026;-67
2024/01/25 04:11:40;;;;;;;29.88;6.95;;;;;;;5.25;100.00;102814.97;4995881;28;20032;-67
2024/01/25 04:14:06;;;;;;;30.08;6.05;;;;;;;5.13;100.00;102804.53;5006661;28;20042;-66
2024/01/25 04:16:32;;;;;;;30.73;6.78;;;;;;;5.15;100.00;102808.91;5008129;28;20021;-66
2024/01/25 04:18:58;;;;;;;30.77;6.63;;;;;;;5.13;100.00;102804.53;5009279;28;20038;-67
2024/01/25 04:21:23;;;;;;;26.63;5.93;;;;;;;5.12;100.00;102824.78;5011099;28;20160;-66
2024/01/25 04:23:49;;;;;;;24.33;5.68;;;;;;;5.12;100.00;102822.13;5009185;28;20712;-66
2024/01/25 04:26:16;;;;;;;34.55;6.57;;;;;;;5.12;100.00;102823.91;5009112;28;20117;-67
2024/01/25 04:28:42;;;;;;;34.40;5.72;;;;;;;4.98;100.00;102798.50;5011010;28;20366;-66
2024/01/25 04:31:07;;;;;;;31.63;6.22;;;;;;;4.94;100.00;102793.25;5011260;28;20026;-66
2024/01/25 04:33:32;;;;;;;33.47;6.85;;;;;;;5.02;100.00;102815.16;5004409;28;20038;-67
2024/01/25 04:35:58;;;;;;;28.60;5.55;;;;;;;4.96;100.00;102818.72;5010938;28;20109;-67
2024/01/25 04:38:26;;;;;;;30.20;7.38;;;;;;;4.91;100.00;102811.72;5010934;28;20042;-66
2024/01/25 04:40:51;;;;;;;33.75;5.50;;;;;;;4.88;100.00;102802.13;5008955;28;20084;-67
2024/01/25 04:43:16;;;;;;;31.52;5.97;;;;;;;4.89;100.00;102800.34;5007743;28;20030;-67
2024/01/25 04:45:44;;;;;;;27.13;5.38;;;;;;;4.88;100.00;102802.13;5007841;28;20427;-67
2024/01/25 04:48:09;;;;;;;36.63;6.80;;;;;;;4.86;100.00;102805.66;5008205;28;20374;-66
2024/01/25 04:50:35;;;;;;;28.30;6.93;;;;;;;4.85;100.00;102802.09;5007720;28;20041;-66
2024/01/25 04:53:03;;;;;;;31.23;6.65;;;;;;;4.85;100.00;102794.19;5008715;28;20065;-66
2024/01/25 04:55:29;;;;;;;23.52;6.40;;;;;;;4.84;100.00;102799.50;5009498;28;20041;-67
2024/01/25 04:57:56;;;;;;;33.72;7.15;;;;;;;4.76;100.00;102792.53;5008574;28;20389;-66
2024/01/25 05:00:25;;;;;;;24.63;6.15;;;;;;;4.70;100.00;102791.69;5009278;28;20034;-67
2024/01/25 05:02:50;;;;;;;26.70;6.53;;;;;;;4.76;100.00;102804.81;5006495;28;20038;-66
2024/01/25 05:05:15;;;;;;;23.42;6.22;;;;;;;4.76;100.00;102805.72;5007340;28;20548;-66
2024/01/25 05:07:41;;;;;;;26.13;5.93;;;;;;;4.75;100.00;102808.34;5010374;28;20022;-67
2024/01/25 05:10:07;;;;;;;31.00;6.22;;;;;;;4.76;100.00;102807.44;4992859;28;20052;-67
2024/01/25 05:12:33;;;;;;;33.20;6.85;;;;;;;4.66;100.00;102795.25;5009402;28;20393;-67
2024/01/25 05:14:59;;;;;;;30.67;6.60;;;;;;;4.69;100.00;102804.00;5008856;28;20033;-66
2024/01/25 05:17:24;;;;;;;20.58;6.07;;;;;;;4.66;100.00;102790.84;5009099;28;20030;-66
2024/01/25 05:19:49;;;;;;;29.08;5.70;;;;;;;4.59;100.00;102791.78;5010389;28;20033;-66
2024/01/25 05:22:15;;;;;;;20.15;5.45;;;;;;;4.61;100.00;102786.47;5009072;28;20032;-66
2024/01/25 05:24:41;;;;;;;20.48;6.05;;;;;;;4.54;100.00;102781.25;5010398;28;20052;-66
2024/01/25 05:27:10;;;;;;;32.38;6.75;;;;;;;4.54;100.00;102783.91;5010092;28;20033;-66
2024/01/25 05:29:36;;;;;;;;;;;;;;;4.57;100.00;102790.03;5009565;28;20460;-66
2024/01/25 05:32:01;;;;;;;31.13;6.65;;;;;;;4.49;100.00;102797.97;5008225;28;19924;-66
2024/01/25 05:34:26;;;;;;;29.52;6.03;;;;;;;4.45;100.00;102812.06;5010122;28;20037;-66
2024/01/25 05:36:53;;;;;;;28.45;6.10;;;;;;;4.29;100.00;102788.47;4992972;28;20054;-66
2024/01/25 05:39:18;;;;;;;24.05;7.47;;;;;;;4.42;100.00;102806.81;5010543;28;20481;-66
2024/01/25 05:41:46;;;;;;;24.85;6.93;;;;;;;4.34;100.00;102793.69;5008471;28;20037;-66
2024/01/25 05:44:12;;;;;;;38.13;7.38;;;;;;;4.39;100.00;102798.94;5004821;28;21438;-66
2024/01/25 05:46:38;;;;;;;29.25;6.50;;;;;;;4.36;100.00;102799.81;5013393;28;20489;-66
2024/01/25 05:49:03;;;;;;;35.42;7.63;;;;;;;4.42;100.00;102802.41;5012855;28;20080;-66
2024/01/25 05:51:29;;;;;;;29.42;6.72;;;;;;;4.33;100.00;102786.66;5012788;28;20021;-66
2024/01/25 05:53:54;;;;;;;35.47;7.38;;;;;;;4.41;100.00;102808.59;5012911;28;20041;-66
2024/01/25 05:56:19;;;;;;;28.13;6.57;;;;;;;4.35;100.00;102807.72;5012604;28;20038;-66
2024/01/25 05:58:45;;;;;;;37.80;7.68;;;;;;;4.35;100.00;102823.53;5008667;28;20545;-66
2024/01/25 06:01:10;;;;;;;28.13;6.47;;;;;;;4.36;100.00;102820.03;5011667;28;20053;-66
2024/01/25 06:03:35;;;;;;;31.98;7.22;;;;;;;4.24;100.00;102802.53;4993312;28;20034;-66
2024/01/25 06:06:01;;;;;;;35.08;8.13;;;;;;;4.36;100.00;102815.63;4997868;28;20041;-66
2024/01/25 06:08:26;;;;;;;27.92;8.18;;;;;;;4.29;100.00;102801.63;5010193;28;20104;-66
2024/01/25 06:10:52;;;;;;;37.13;6.75;;;;;;;4.28;100.00;102807.75;5003999;28;20046;-66
2024/01/25 06:13:19;;;;;;;22.25;5.75;;;;;;;4.20;100.00;102804.28;4998777;28;20069;-66
2024/01/25 06:15:44;;;;;;;27.58;6.43;;;;;;;4.06;100.00;102775.41;4994623;28;20367;-67
2024/01/25 06:18:10;;;;;;;31.38;7.15;;;;;;;4.17;100.00;102804.28;4996031;28;20042;-66
2024/01/25 06:20:37;;;;;;;24.00;7.10;;;;;;;4.21;100.00;102821.84;4994818;28;20030;-66
2024/01/25 06:23:04;;;;;;;28.27;6.78;;;;;;;4.17;100.00;102814.81;4995916;28;20068;-66
2024/01/25 06:25:30;;;;;;;19.70;6.63;;;;;;;4.15;100.00;102815.72;5005920;28;20116;-66
2024/01/25 06:27:57;;;;;;;30.55;7.03;;;;;;;4.10;100.00;102832.41;5009386;28;20072;-66
2024/01/25 06:30:22;;;;;;;22.30;6.13;;;;;;;4.01;100.00;102823.69;5012890;28;20057;-66
2024/01/25 06:32:48;;;;;;;22.33;6.47;;;;;;;4.00;100.00;102827.19;5011671;28;20511;-66
2024/01/25 06:35:14;;;;;;;40.72;7.70;;;;;;;4.06;100.00;102833.31;5012904;28;20400;-66
2024/01/25 06:37:41;;;;;;;32.55;8.88;;;;;;;4.09;100.00;102833.31;5011517;28;20069;-66
2024/01/25 06:40:07;;;;;;;21.50;6.50;;;;;;;4.12;100.00;102829.78;4995250;28;20030;-66
2024/01/25 06:42:37;;;;;;;31.33;7.55;;;;;;;4.13;100.00;102821.00;4994531;28;20033;-66
2024/01/25 06:45:04;;;;;;;31.48;7.50;;;;;;;4.07;100.00;102816.63;5003324;28;20447;-66
2024/01/25 06:47:29;;;;;;;16.67;6.40;;;;;;;4.07;100.00;102827.16;5009138;28;20026;-66
2024/01/25 06:49:57;;;;;;;34.35;7.63;;;;;;;3.99;100.00;102826.31;5008740;28;20029;-66
2024/01/25 06:52:22;;;;;;;27.60;7.30;;;;;;;3.93;100.00;102823.72;5010659;28;20029;-66
2024/01/25 06:54:48;;;;;;;16.55;5.35;;;;;;;3.89;100.00;102810.59;5007928;28;20095;-66
2024/01/25 06:57:14;;;;;;;31.98;7.93;;;;;;;3.88;100.00;102812.31;5010357;28;20116;-67
2024/01/25 06:59:39;;;;;;;23.50;6.93;;;;;;;3.85;100.00;102829.00;5010239;28;20481;-66
2024/01/25 07:02:05;;;;;;;38.13;9.07;;;;;;;3.77;100.00;102827.28;5004920;28;20036;-66
2024/01/25 07:04:32;;;;;;;23.77;6.35;;;;;;;3.68;100.00;102825.56;5003388;28;20451;-66
2024/01/25 07:06:59;;;;;;;33.10;6.97;;;;;;;3.75;100.00;102836.94;5012432;28;20797;-66
2024/01/25 07:09:25;;;;;;;30.17;7.10;;;;;;;3.73;100.00;102829.03;5012364;28;20030;-66
2024/01/25 07:11:50;;;;;;;19.15;6.75;;;;;;;3.75;100.00;102837.81;4993972;28;20029;-66
2024/01/25 07:14:16;;;;;;;28.98;6.70;;;;;;;3.71;100.00;102828.19;5010348;28;20083;-66
2024/01/25 07:16:41;;;;;;;25.17;7.72;;;;;;;3.61;100.00;102815.91;5010453;28;20030;-66
2024/01/25 07:19:06;;;;;;;25.63;7.75;;;;;;;3.71;100.00;102837.84;5012696;28;20393;-66
2024/01/25 07:21:36;;;;;;;21.15;7.50;;;;;;;3.70;100.00;102846.59;5011460;28;20040;-66
2024/01/25 07:24:04;;;;;;;27.33;8.25;;;;;;;3.62;100.00;102826.44;5011965;28;20042;-66
2024/01/25 07:26:30;;;;;;;35.85;7.80;;;;;;;3.67;100.00;102841.31;5011037;28;20023;-67
2024/01/25 07:28:58;;;;;;;27.70;6.97;;;;;;;3.64;100.00;102848.34;5010648;28;20051;-66
2024/01/25 07:31:25;;;;;;;30.23;7.30;;;;;;;3.57;100.00;102837.84;5011830;28;20037;-66
2024/01/25 07:33:51;;;;;;;21.77;6.60;;;;;;;3.66;100.00;102848.34;5007319;28;20049;-66
2024/01/25 07:36:18;;;;;;;38.63;8.00;;;;;;;3.68;100.00;102849.22;5009703;28;20026;-66
2024/01/25 07:38:43;;;;;;;25.63;7.28;;;;;;;3.72;100.00;102855.38;5009874;28;20120;-66
2024/01/25 07:41:09;;;;;;;35.80;8.40;;;;;;;3.71;100.00;102841.34;5010817;28;20045;-67
2024/01/25 07:43:36;;;;;;;31.35;7.85;;;;;;;3.79;100.00;102857.09;5008580;28;20445;-67
2024/01/25 07:46:02;;;;;;;23.27;7.43;;;;;;;3.84;100.00;102850.94;5011185;28;20034;-68
2024/01/25 07:48:28;;;;;;;33.75;8.13;;;;;;;3.89;100.00;102853.56;5014355;28;20084;-66
2024/01/25 07:50:53;;;;;;;36.85;8.60;;;;;;;3.95;100.00;102839.50;5010792;28;20030;-66
2024/01/25 07:53:18;;;;;;;24.77;8.15;;;;;;;3.95;100.00;102837.75;5009675;28;20109;-66
2024/01/25 07:55:45;;;;;;;32.35;8.25;;;;;;;4.05;100.00;102836.81;5010263;28;20393;-66
2024/01/25 07:58:10;;;;;;;33.85;8.90;;;;;;;4.12;100.00;102842.06;5009160;28;20072;-67
2024/01/25 08:00:36;;;;;;;31.27;8.27;;;;;;;4.16;100.00;102839.41;5010102;28;20030;-66
2024/01/25 08:03:04;;;;;;;34.13;10.15;;;;;;;4.24;100.00;102844.66;5003469;28;20461;-66
2024/01/25 08:05:29;;;;;;;46.97;8.35;;;;;;;4.22;100.00;102835.88;4996301;28;20030;-67
2024/01/25 08:07:54;;;;;;;31.05;8.23;;;;;;;4.34;100.00;102849.00;5005765;28;20026;-67
2024/01/25 08:10:20;;;;;;;33.78;9.50;;;;;;;4.38;100.00;102863.88;5011160;28;20712;-66
2024/01/25 08:12:47;;;;;;;52.03;10.80;;;;;;;4.36;100.00;102854.28;5008639;28;20025;-67
2024/01/25 08:15:13;;;;;;;41.80;9.15;;;;;;;4.40;100.00;102858.63;5011110;28;20080;-67
2024/01/25 08:17:38;;;;;;;37.63;9.05;;;;;;;4.42;100.00;102848.97;4993524;28;20425;-66
2024/01/25 08:20:06;;;;;;;36.08;8.38;;;;;;;4.35;100.00;102842.84;5011038;28;20037;-66
2024/01/25 08:22:31;;;;;;;41.58;10.65;;;;;;;4.43;100.00;102859.47;4992129;28;20461;-66
2024/01/25 08:24:57;;;;;;;32.70;8.82;;;;;;;4.44;100.00;102847.19;5001833;28;20038;-67
2024/01/25 08:27:22;;;;;;;30.35;8.00;;;;;;;4.50;100.00;102849.78;4998192;28;20054;-67
2024/01/25 08:29:48;;;;;;;39.33;9.77;;;;;;;4.57;100.00;102829.56;5009346;28;20033;-66
2024/01/25 08:32:13;;;;;;;43.33;9.30;;;;;;;4.57;100.00;102816.38;5010160;28;20127;-66
2024/01/25 08:34:38;;;;;;;37.35;9.52;;;;;;;4.62;100.00;102826.03;5010379;28;20048;-66
2024/01/25 08:37:04;;;;;;;35.10;9.68;;;;;;;4.58;100.00;102820.75;5009790;28;20509;-67
2024/01/25 08:39:31;;;;;;;41.13;10.73;;;;;;;4.66;100.00;102834.78;5008931;28;20138;-66
2024/01/25 08:42:00;;;;;;;27.92;8.77;;;;;;;4.60;100.00;102822.50;5008548;28;20036;-67
2024/01/25 08:44:25;;;;;;;42.25;10.70;;;;;;;4.74;100.00;102848.78;5010297;28;20490;-67
2024/01/25 08:46:51;;;;;;;31.10;10.27;;;;;;;4.64;100.00;102842.66;5008513;28;20028;-66
2024/01/25 08:49:16;;;;;;;36.42;9.50;;;;;;;4.76;100.00;102865.44;5008814;28;20069;-66
2024/01/25 08:51:42;;;;;;;30.65;11.27;;;;;;;4.77;100.00;102868.09;5022721;28;20026;-66
2024/01/25 08:54:10;;;;;;;36.38;13.00;;;;;;;4.76;100.00;102866.34;5005570;28;20045;-67
2024/01/25 08:56:35;;;;;;;29.30;10.98;;;;;;;4.78;100.00;102861.91;5006512;28;20033;-67
2024/01/25 08:59:01;;;;;;;34.33;12.95;;;;;;;4.80;100.00;102845.22;5004153;28;20034;-67
2024/01/25 09:01:26;;;;;;;27.65;11.88;;;;;;;4.87;100.00;102860.13;5006302;28;20030;-67
2024/01/25 09:03:52;;;;;;;28.13;11.30;;;;;;;4.90;100.00;102863.59;5010401;28;20389;-67
2024/01/25 09:06:17;;;;;;;38.28;12.15;;;;;;;4.93;100.00;102855.66;5004143;28;20508;-66
2024/01/25 09:08:45;;;;;;;40.97;13.35;;;;;;;4.98;100.00;102867.06;5008446;28;20113;-66
2024/01/25 09:11:10;;;;;;;36.20;12.43;;;;;;;5.04;100.00;102870.56;5007936;28;20068;-66
2024/01/25 09:13:36;;;;;;;38.22;12.88;;;;;;;5.04;100.00;102863.50;5009720;28;20079;-66
2024/01/25 09:16:01;;;;;;;33.65;13.18;;;;;;;5.08;100.00;102872.25;5008133;28;20026;-66
2024/01/25 09:18:26;;;;;;;31.05;12.18;;;;;;;5.07;100.00;102866.13;5008414;28;20055;-66
2024/01/25 09:20:52;;;;;;;37.65;12.65;;;;;;;5.10;100.00;102873.13;5012352;28;20037;-66
2024/01/25 09:23:17;;;;;;;36.33;12.90;;;;;;;5.08;100.00;102861.72;5012153;28;20486;-66
2024/01/25 09:25:44;;;;;;;39.22;12.35;;;;;;;5.08;100.00;102859.06;5012278;28;20103;-66
2024/01/25 09:28:11;;;;;;;44.92;14.10;;;;;;;5.20;100.00;102864.25;5013342;28;20588;-66
2024/01/25 09:30:38;;;;;;;29.48;11.30;;;;;;;5.28;100.00;102865.06;5010502;28;20025;-66
2024/01/25 09:33:04;;;;;;;33.00;14.35;;;;;;;5.28;100.00;102862.44;5007965;28;20049;-67
2024/01/25 09:35:29;;;;;;;31.75;12.27;;;;;;;5.34;100.00;102858.88;5011103;28;20393;-66
2024/01/25 09:37:55;;;;;;;36.90;11.60;;;;;;;5.42;100.00;102871.09;5012685;28;20115;-66
2024/01/25 09:40:20;;;;;;;31.20;13.93;;;;;;;5.44;100.00;102871.06;5014732;28;20030;-66
2024/01/25 09:42:48;;;;;;;39.33;12.57;;;;;;;5.47;100.00;102853.47;5013128;28;20026;-66
2024/01/25 09:45:18;;;;;;;37.20;11.15;;;;;;;5.50;100.00;102860.50;5014376;28;20087;-67
2024/01/25 09:47:47;;;;;;;31.92;11.05;;;;;;;5.56;100.00;102876.25;5010836;28;20049;-66
2024/01/25 09:50:14;;;;;;;29.02;11.07;;;;;;;5.56;100.00;102871.00;5012682;28;20117;-67
2024/01/25 09:52:42;;;;;;;22.27;11.38;;;;;;;5.57;100.00;102871.84;5010967;28;20432;-66
2024/01/25 09:55:08;;;;;;;28.92;11.75;;;;;;;5.69;100.00;102877.00;5012706;28;20022;-66
2024/01/25 09:57:38;;;;;;;36.67;12.38;;;;;;;5.75;100.00;102878.72;5012734;28;20021;-66
2024/01/25 10:00:05;;;;;;;35.38;13.43;;;;;;;5.73;100.00;102862.88;5009503;28;20117;-66
2024/01/25 10:02:31;;;;;;;27.95;11.30;;;;;;;5.61;100.00;102842.75;5011432;28;20080;-67
2024/01/25 10:04:57;;;;;;;37.63;12.50;;;;;;;5.74;100.00;102861.13;5010689;28;20322;-66
2024/01/25 10:07:38;;;;;;;29.65;13.40;;;;;;;5.66;100.00;102842.72;5008196;28;20109;-67
2024/01/25 10:10:05;;;;;;;41.00;13.30;;;;;;;5.79;100.00;102854.88;5009399;28;20034;-66
2024/01/25 10:12:31;;;;;;;38.88;12.93;;;;;;;5.89;100.00;102853.91;5008816;28;20256;-66
2024/01/25 10:14:57;;;;;;;40.03;13.13;;;;;;;5.95;100.00;102839.81;5012507;28;20022;-67
2024/01/25 10:17:22;;;;;;;36.47;13.93;;;;;;;5.99;100.00;102846.78;5009672;28;20028;-66
2024/01/25 10:19:48;;;;;;;44.05;14.02;;;;;;;5.98;100.00;102823.06;5011721;28;20026;-66
2024/01/25 10:22:14;;;;;;;46.42;13.93;;;;;;;6.12;100.00;102837.84;5009239;28;20509;-66
2024/01/25 10:24:40;;;;;;;50.72;15.35;;;;;;;6.16;100.00;102838.66;5012349;28;20030;-66
2024/01/25 10:27:07;;;;;;;39.75;14.88;;;;;;;6.20;100.00;102831.56;5003155;28;20022;-67
2024/01/25 10:29:34;;;;;;;39.80;13.30;;;;;;;6.23;100.00;102836.81;5003145;28;20022;-66
2024/01/25 10:32:00;;;;;;;42.38;13.38;;;;;;;6.31;100.00;102827.03;5012589;28;20037;-66
2024/01/25 10:34:26;;;;;;;53.58;14.13;;;;;;;6.36;100.00;102814.63;5012574;28;20042;-67
2024/01/25 10:36:52;;;;;;;46.92;14.73;;;;;;;6.46;100.00;102813.59;5011127;28;20040;-67
2024/01/25 10:39:18;;;;;;;41.55;13.82;;;;;;;6.52;100.00;102820.56;5012266;28;20117;-66
2024/01/25 10:41:50;;;;;;;56.53;13.68;;;;;;;6.58;100.00;102809.91;5011478;28;20057;-67
2024/01/25 10:44:21;;;;;;;43.10;13.00;;;;;;;6.62;100.00;102802.78;5012814;28;20030;-66
2024/01/25 10:46:50;;;;;;;42.25;14.20;;;;;;;6.64;100.00;102801.00;5012350;28;20458;-66
2024/01/25 10:49:17;;;;;;;43.20;12.82;;;;;;;6.76;100.00;102800.81;5011035;28;20058;-67
2024/01/25 10:51:44;;;;;;;43.90;13.95;;;;;;;6.80;100.00;102797.25;5012472;28;20026;-66
2024/01/25 10:54:14;;;;;;;41.13;12.73;;;;;;;6.78;100.00;102796.38;5012688;28;20026;-66
2024/01/25 10:56:45;;;;;;;39.85;13.02;;;;;;;6.81;100.00;102809.56;5013264;28;20025;-66
2024/01/25 10:59:11;;;;;;;41.15;11.13;;;;;;;6.71;100.00;102785.03;5013606;28;20528;-67
2024/01/25 11:01:37;;;;;;;40.58;11.90;;;;;;;6.82;100.00;102796.31;5012248;28;20038;-67
2024/01/25 11:04:03;;;;;;;37.55;12.43;;;;;;;6.85;100.00;102787.44;5013407;28;20461;-66
2024/01/25 11:06:28;;;;;;;44.70;11.75;;;;;;;6.95;100.00;102799.63;5001594;28;20026;-67
2024/01/25 11:09:07;;;;;;;43.45;11.68;;;;;;;7.02;100.00;102789.81;4994633;28;20042;-66